Time;durP1;ratioP1;P1;durP2;ratioP2;P2;SDS_P1;SDS_P2;PMS_P1;PMS_P2;Temp;Humidity;BMP_temperature;BMP_pressure;BME280_temperature;BME280_humidity;BME280_pressure;Samples;Min_cycle;Max_cycle;Signal;HPM_P1;HPM_P2
2021/01/13 00:02:09;;;;;;;11.95;6.35;;;1.80;99.90;;;;;;5025802;28;20045;-76
2021/01/13 00:04:35;;;;;;;13.32;6.63;;;2.00;99.90;;;;;;5033417;28;20491;-76
2021/01/13 00:07:02;;;;;;;13.25;6.47;;;1.80;99.90;;;;;;5022333;28;20407;-76
2021/01/13 00:09:28;;;;;;;14.38;6.78;;;1.70;99.90;;;;;;5025179;28;20093;-75
2021/01/13 00:11:57;;;;;;;12.05;6.97;;;1.70;99.90;;;;;;5028415;28;20064;-75
2021/01/13 00:14:24;;;;;;;15.32;7.75;;;1.70;99.90;;;;;;5024082;28;20060;-76
2021/01/13 00:16:50;;;;;;;14.70;7.38;;;1.60;99.90;;;;;;5025023;28;20269;-76
2021/01/13 00:19:16;;;;;;;14.23;7.30;;;1.60;99.90;;;;;;5030329;28;20138;-76
2021/01/13 00:21:51;;;;;;;17.05;7.50;;;1.40;99.90;;;;;;5028404;28;20111;-76
2021/01/13 00:24:18;;;;;;;18.25;7.32;;;1.60;99.90;;;;;;5026382;28;20037;-76
2021/01/13 00:26:44;;;;;;;13.82;7.25;;;1.60;99.90;;;;;;5030496;28;20045;-75
2021/01/13 00:29:14;;;;;;;14.93;7.47;;;1.30;99.90;;;;;;5039864;28;20171;-75
2021/01/13 00:31:40;;;;;;;14.57;7.32;;;;;;;;;;5039404;28;20415;-76
2021/01/13 00:34:07;;;;;;;16.02;7.20;;;;;;;;;;5020697;28;20040;-76
2021/01/13 00:36:33;;;;;;;13.13;6.90;;;;;;;;;;5027729;28;20032;-76
2021/01/13 00:38:59;;;;;;;18.60;7.07;;;;;;;;;;5040910;28;20077;-77
2021/01/13 00:41:25;;;;;;;11.63;7.05;;;;;;;;;;5028457;28;20034;-76
2021/01/13 00:43:53;;;;;;;13.32;7.00;;;1.60;99.90;;;;;;5042662;28;20045;-75
2021/01/13 00:46:20;;;;;;;12.55;6.35;;;1.60;99.90;;;;;;5039748;28;20423;-75
2021/01/13 00:48:46;;;;;;;18.92;7.55;;;1.60;99.90;;;;;;5043881;28;20061;-76
2021/01/13 00:51:12;;;;;;;15.48;7.15;;;;;;;;;;5035041;28;20064;-75
2021/01/13 00:53:38;;;;;;;13.65;7.32;;;1.50;99.90;;;;;;5034128;28;20091;-75
2021/01/13 00:56:05;;;;;;;15.75;7.40;;;4.60;99.90;;;;;;5035240;28;20116;-74
2021/01/13 00:58:30;;;;;;;13.43;7.20;;;1.40;99.90;;;;;;5043027;28;20033;-74
2021/01/13 01:00:57;;;;;;;15.68;7.38;;;1.50;99.90;;;;;;5036556;28;20049;-74
2021/01/13 01:03:23;;;;;;;12.95;7.40;;;;;;;;;;5043779;28;20522;-76
2021/01/13 01:05:49;;;;;;;17.17;6.90;;;1.50;99.90;;;;;;5039827;28;20053;-75
2021/01/13 01:08:16;;;;;;;12.18;6.95;;;;;;;;;;5039587;28;20053;-74
2021/01/13 01:10:42;;;;;;;14.82;7.22;;;;;;;;;;5043354;28;20099;-76
2021/01/13 01:13:08;;;;;;;15.45;7.40;;;1.40;99.90;;;;;;5032247;28;20037;-76
2021/01/13 01:15:34;;;;;;;13.73;6.80;;;1.40;99.90;;;;;;5017054;28;20053;-76
2021/01/13 01:18:01;;;;;;;14.45;7.50;;;1.40;99.90;;;;;;5044486;28;20076;-77
2021/01/13 01:20:27;;;;;;;18.45;7.07;;;2.70;99.90;;;;;;5040695;28;20049;-74
2021/01/13 01:22:53;;;;;;;17.65;7.18;;;1.40;99.90;;;;;;5020297;28;20046;-76
2021/01/13 01:25:20;;;;;;;16.92;7.90;;;1.40;99.90;;;;;;5042119;28;20038;-75
2021/01/13 01:27:50;;;;;;;16.60;6.55;;;1.20;99.90;;;;;;5040624;28;20555;-75
2021/01/13 01:30:19;;;;;;;15.82;7.25;;;1.40;99.90;;;;;;5044000;28;20033;-76
2021/01/13 01:32:45;;;;;;;17.15;8.13;;;1.40;99.90;;;;;;5046852;28;20087;-76
2021/01/13 01:35:12;;;;;;;15.45;7.38;;;3.60;99.90;;;;;;5047830;28;20506;-75
2021/01/13 01:37:39;;;;;;;18.52;6.93;;;1.30;99.90;;;;;;5042508;28;20128;-75
2021/01/13 01:40:08;;;;;;;16.65;8.55;;;1.50;99.90;;;;;;5024195;28;20141;-75
2021/01/13 01:42:34;;;;;;;15.63;7.15;;;;;;;;;;5047381;28;21062;-76
2021/01/13 01:45:00;;;;;;;13.65;6.70;;;1.30;99.90;;;;;;5044026;28;20104;-76
2021/01/13 01:47:58;;;;;;;12.70;6.65;;;1.30;99.90;;;;;;5048674;28;20037;-76
2021/01/13 01:50:29;;;;;;;17.55;8.88;;;1.30;99.90;;;;;;5047910;28;20068;-75
2021/01/13 01:53:33;;;;;;;14.48;7.05;;;1.20;99.90;;;;;;5046560;28;20041;-75
2021/01/13 01:56:08;;;;;;;14.07;6.50;;;1.20;99.90;;;;;;5024001;28;20441;-75
2021/01/13 01:58:34;;;;;;;12.77;6.97;;;1.20;99.90;;;;;;5049999;28;20030;-75
2021/01/13 02:01:02;;;;;;;14.88;7.00;;;1.10;99.90;;;;;;5044271;28;20029;-74
2021/01/13 02:03:44;;;;;;;15.68;7.10;;;2.40;99.90;;;;;;5047222;28;20037;-76
2021/01/13 02:06:14;;;;;;;15.93;6.65;;;1.00;99.90;;;;;;5044950;28;20045;-74
2021/01/13 02:08:41;;;;;;;14.73;6.55;;;1.10;99.90;;;;;;5040811;28;20033;-75
2021/01/13 02:11:16;;;;;;;16.85;6.78;;;1.00;99.90;;;;;;5042496;28;20045;-76
2021/01/13 02:13:43;;;;;;;17.40;6.47;;;1.10;99.90;;;;;;5047902;28;20056;-76
2021/01/13 02:16:11;;;;;;;12.88;6.38;;;1.00;99.90;;;;;;5045881;28;20049;-76
2021/01/13 02:18:47;;;;;;;16.30;6.60;;;1.00;99.90;;;;;;5044323;28;20040;-75
2021/01/13 02:21:15;;;;;;;14.85;6.93;;;1.00;99.90;;;;;;5044782;28;20060;-75
2021/01/13 02:24:08;;;;;;;17.30;6.53;;;1.00;99.90;;;;;;5041739;28;20046;-75
2021/01/13 02:27:22;;;;;;;16.25;6.72;;;1.00;99.90;;;;;;5042923;28;20135;-75
2021/01/13 02:29:52;;;;;;;16.25;7.32;;;1.00;99.90;;;;;;5038922;28;20041;-76
2021/01/13 02:32:23;;;;;;;15.50;7.13;;;0.90;99.90;;;;;;5023619;28;20506;-75
2021/01/13 02:35:09;;;;;;;13.77;6.68;;;0.40;99.90;;;;;;5044271;28;20029;-75
2021/01/13 02:37:56;;;;;;;17.15;7.55;;;0.90;99.90;;;;;;5042868;28;20030;-76
2021/01/13 02:40:22;;;;;;;16.20;6.85;;;0.90;99.90;;;;;;5058117;28;20582;-74
2021/01/13 02:43:03;;;;;;;15.75;6.70;;;0.90;99.90;;;;;;5041683;28;20045;-75
2021/01/13 02:45:37;;;;;;;11.85;6.10;;;0.90;99.90;;;;;;5043535;28;20026;-76
2021/01/13 02:48:14;;;;;;;16.85;6.97;;;0.90;99.90;;;;;;5041446;28;20030;-76
2021/01/13 02:50:45;;;;;;;14.32;6.18;;;0.90;99.90;;;;;;5042822;28;20033;-78
2021/01/13 02:53:13;;;;;;;15.18;6.13;;;0.90;99.90;;;;;;5048122;28;20044;-75
2021/01/13 02:55:48;;;;;;;14.93;7.70;;;0.80;99.90;;;;;;5042902;28;20040;-76
2021/01/13 02:58:19;;;;;;;21.48;8.57;;;0.90;99.90;;;;;;5042961;28;20056;-76
2021/01/13 03:00:45;;;;;;;16.77;7.13;;;0.80;99.90;;;;;;5046313;28;20037;-75
2021/01/13 03:03:14;;;;;;;15.63;6.75;;;0.90;99.90;;;;;;5044305;28;20045;-75
2021/01/13 03:05:40;;;;;;;12.88;6.20;;;;;;;;;;5044377;28;20041;-75
2021/01/13 03:08:07;;;;;;;13.48;6.40;;;;;;;;;;5048539;28;20184;-76
2021/01/13 03:10:37;;;;;;;15.52;6.80;;;0.90;99.90;;;;;;5034423;28;20095;-76
2021/01/13 03:13:06;;;;;;;13.85;6.88;;;0.90;99.90;;;;;;5043967;28;20418;-76
2021/01/13 03:15:34;;;;;;;11.85;6.05;;;0.90;99.90;;;;;;5042756;28;20041;-77
2021/01/13 03:18:16;;;;;;;11.13;5.97;;;0.90;99.90;;;;;;5041747;28;20044;-76
2021/01/13 03:20:50;;;;;;;13.45;6.43;;;0.90;99.90;;;;;;5043010;28;20041;-75
2021/01/13 03:23:22;;;;;;;14.18;6.53;;;;;;;;;;5035074;28;20053;-76
2021/01/13 03:25:54;;;;;;;14.65;6.53;;;0.90;99.90;;;;;;5035657;28;20044;-77
2021/01/13 03:28:28;;;;;;;12.38;5.75;;;0.90;99.90;;;;;;5025960;28;20037;-76
2021/01/13 03:30:54;;;;;;;16.77;6.68;;;0.90;99.90;;;;;;5043781;28;20052;-76
2021/01/13 03:33:26;;;;;;;15.27;6.22;;;0.00;99.90;;;;;;5040216;28;20113;-76
2021/01/13 03:36:00;;;;;;;18.73;6.43;;;0.80;99.90;;;;;;5040417;28;20554;-76
2021/01/13 03:38:28;;;;;;;14.07;7.10;;;0.80;99.90;;;;;;5037873;28;20499;-75
2021/01/13 03:41:07;;;;;;;12.15;6.10;;;0.80;99.90;;;;;;5037139;28;20667;-77
2021/01/13 03:43:39;;;;;;;14.73;6.68;;;0.80;99.90;;;;;;5033028;28;20044;-76
2021/01/13 03:46:09;;;;;;;10.00;6.20;;;0.80;99.90;;;;;;5039636;28;20033;-76
2021/01/13 03:48:48;;;;;;;19.88;6.70;;;1.80;99.90;;;;;;5047151;28;20029;-77
2021/01/13 03:51:32;;;;;;;14.40;6.15;;;1.60;99.90;;;;;;5037946;28;20052;-76
2021/01/13 03:54:03;;;;;;;27.10;8.05;;;0.70;99.90;;;;;;5040222;28;20407;-76
2021/01/13 03:56:29;;;;;;;28.45;9.52;;;;;;;;;;5042539;28;20106;-76
2021/01/13 03:59:02;;;;;;;23.73;9.10;;;0.70;99.90;;;;;;5051077;28;20029;-76
2021/01/13 04:01:52;;;;;;;24.50;9.13;;;0.60;99.90;;;;;;5044220;28;20071;-76
2021/01/13 04:04:55;;;;;;;33.58;11.45;;;0.70;99.90;;;;;;5043344;28;20033;-78
2021/01/13 04:07:24;;;;;;;24.30;9.70;;;0.70;99.90;;;;;;5045904;28;20044;-77
2021/01/13 04:09:51;;;;;;;29.08;10.63;;;0.60;99.90;;;;;;5042673;28;20047;-76
2021/01/13 04:12:21;;;;;;;27.23;11.13;;;0.40;99.90;;;;;;5035963;28;20068;-76
2021/01/13 04:14:47;;;;;;;24.17;10.27;;;0.60;99.90;;;;;;5045702;28;20040;-76
2021/01/13 04:17:15;;;;;;;24.95;9.13;;;0.30;99.90;;;;;;5040363;28;20045;-76
2021/01/13 04:19:45;;;;;;;18.70;7.72;;;0.60;99.90;;;;;;5053504;28;20025;-76
2021/01/13 04:22:13;;;;;;;22.50;9.35;;;0.50;99.90;;;;;;5046024;28;20041;-76
2021/01/13 04:24:40;;;;;;;28.73;9.70;;;0.60;99.90;;;;;;5044557;28;20048;-77
2021/01/13 04:27:07;;;;;;;20.95;8.27;;;0.40;99.90;;;;;;5045342;28;20030;-75
2021/01/13 04:29:34;;;;;;;25.40;9.40;;;0.60;99.90;;;;;;5028839;28;20064;-76
2021/01/13 04:32:00;;;;;;;20.55;9.43;;;0.50;99.90;;;;;;5027738;28;20089;-76
2021/01/13 04:34:26;;;;;;;24.90;9.50;;;;;;;;;;5048383;28;20089;-76
2021/01/13 04:36:55;;;;;;;19.95;8.80;;;0.50;99.90;;;;;;5047456;28;20076;-76
2021/01/13 04:39:23;;;;;;;24.35;9.38;;;0.50;99.90;;;;;;5042460;28;20506;-76
2021/01/13 04:42:03;;;;;;;22.45;9.80;;;0.50;99.90;;;;;;5026582;28;20045;-76
2021/01/13 04:44:57;;;;;;;18.25;8.90;;;0.50;99.90;;;;;;5035005;28;20025;-77
2021/01/13 04:47:50;;;;;;;19.20;9.57;;;0.40;99.90;;;;;;5027882;28;20089;-76
2021/01/13 04:50:20;;;;;;;17.95;8.80;;;0.40;99.90;;;;;;5050291;28;20052;-76
2021/01/13 04:52:49;;;;;;;18.58;9.85;;;0.40;99.90;;;;;;5029988;28;20400;-77
2021/01/13 04:55:26;;;;;;;21.83;9.25;;;0.30;99.90;;;;;;5030994;28;20309;-77
2021/01/13 04:58:07;;;;;;;18.75;10.07;;;0.30;99.90;;;;;;5035926;28;20053;-77
2021/01/13 05:01:10;;;;;;;25.33;10.18;;;0.20;99.90;;;;;;5023853;28;20545;-76
2021/01/13 05:04:02;;;;;;;18.60;9.00;;;0.20;99.90;;;;;;5021095;28;20037;-77
2021/01/13 05:06:45;;;;;;;23.13;10.18;;;0.20;99.90;;;;;;5029306;28;20109;-77
2021/01/13 05:09:12;;;;;;;19.52;10.02;;;0.20;99.90;;;;;;5039292;28;20091;-76
2021/01/13 05:11:48;;;;;;;19.13;9.98;;;0.10;99.90;;;;;;5028179;28;20150;-77
2021/01/13 05:14:16;;;;;;;17.08;9.23;;;0.10;99.90;;;;;;5023894;28;20052;-76
2021/01/13 05:16:50;;;;;;;22.10;9.85;;;0.10;99.90;;;;;;5028436;28;20029;-76
2021/01/13 05:19:37;;;;;;;19.38;9.50;;;0.00;99.90;;;;;;5029553;28;20097;-77
2021/01/13 05:22:03;;;;;;;15.20;8.63;;;;;;;;;;5035615;28;20041;-76
2021/01/13 05:24:31;;;;;;;19.13;9.65;;;;;;;;;;5033186;28;20064;-76
2021/01/13 05:27:04;;;;;;;16.50;8.80;;;0.00;99.90;;;;;;5036145;28;20057;-76
2021/01/13 05:29:37;;;;;;;18.77;9.25;;;0.00;99.90;;;;;;5035764;28;20038;-75
2021/01/13 05:32:06;;;;;;;20.88;9.02;;;0.00;99.90;;;;;;5039380;28;20061;-76
2021/01/13 05:34:33;;;;;;;17.85;8.60;;;0.10;99.90;;;;;;5038827;28;20124;-77
2021/01/13 05:37:17;;;;;;;18.70;9.60;;;0.10;99.90;;;;;;5051011;28;20038;-75
2021/01/13 05:39:44;;;;;;;18.98;8.73;;;0.20;99.90;;;;;;5019150;28;20049;-75
2021/01/13 05:42:11;;;;;;;18.02;9.05;;;;;;;;;;5041719;28;20045;-76
2021/01/13 05:44:40;;;;;;;19.10;8.70;;;;;;;;;;5032691;28;20028;-79
2021/01/13 05:47:12;;;;;;;20.17;9.13;;;0.20;99.90;;;;;;5037078;28;20045;-75
2021/01/13 05:49:39;;;;;;;20.60;8.73;;;0.30;99.90;;;;;;5034292;28;20508;-75
2021/01/13 05:52:08;;;;;;;16.70;9.57;;;0.20;99.90;;;;;;5043855;28;20022;-76
2021/01/13 05:54:38;;;;;;;16.52;8.43;;;0.30;99.90;;;;;;5034645;28;20439;-76
2021/01/13 05:57:05;;;;;;;18.50;9.07;;;0.40;99.90;;;;;;5038761;28;20069;-76
2021/01/13 05:59:33;;;;;;;18.23;8.45;;;;;;;;;;5041194;28;20053;-76
2021/01/13 06:02:02;;;;;;;19.60;8.07;;;0.40;99.90;;;;;;5033625;28;20094;-76
2021/01/13 06:04:29;;;;;;;19.83;8.23;;;0.40;99.90;;;;;;5041690;28;20060;-76
2021/01/13 06:07:16;;;;;;;16.00;8.52;;;0.40;99.90;;;;;;5036943;28;20152;-76
2021/01/13 06:09:43;;;;;;;19.02;9.00;;;0.40;99.90;;;;;;5037468;28;20034;-75
2021/01/13 06:12:17;;;;;;;21.95;10.02;;;0.50;99.90;;;;;;5036107;28;20041;-76
2021/01/13 06:14:43;;;;;;;21.10;8.45;;;;;;;;;;5036186;28;20046;-75
2021/01/13 06:17:23;;;;;;;22.02;8.85;;;0.60;99.90;;;;;;5020013;28;20060;-76
2021/01/13 06:19:50;;;;;;;16.65;8.52;;;0.60;99.90;;;;;;5033191;28;20105;-76
2021/01/13 06:22:17;;;;;;;20.58;8.75;;;0.60;99.90;;;;;;5032981;28;20046;-75
2021/01/13 06:24:43;;;;;;;19.25;8.35;;;;;;;;;;5033796;28;20088;-76
2021/01/13 06:27:21;;;;;;;15.60;8.77;;;0.50;99.90;;;;;;5034118;28;20068;-75
2021/01/13 06:30:00;;;;;;;21.67;9.45;;;0.50;99.90;;;;;;5032008;28;20048;-75
2021/01/13 06:32:33;;;;;;;14.40;8.55;;;0.50;99.90;;;;;;5037177;28;20521;-75
2021/01/13 06:35:27;;;;;;;18.88;8.73;;;0.50;99.90;;;;;;5032068;28;20126;-76
2021/01/13 06:37:53;;;;;;;23.88;9.15;;;;;;;;;;5030950;28;20045;-75
2021/01/13 06:40:21;;;;;;;20.58;9.52;;;;;;;;;;5038457;28;20412;-75
2021/01/13 06:42:47;;;;;;;19.48;9.02;;;0.70;99.90;;;;;;5027183;28;20057;-75
2021/01/13 06:45:18;;;;;;;19.70;9.23;;;0.70;99.90;;;;;;5030604;28;20057;-76
2021/01/13 06:47:54;;;;;;;;;;;0.70;99.90;;;;;;5032210;28;20572;-75
2021/01/13 06:50:40;;;;;;;23.30;10.00;;;0.80;99.90;;;;;;5032535;28;19963;-76
2021/01/13 06:53:13;;;;;;;27.23;10.80;;;0.80;99.90;;;;;;5012972;28;20088;-76
2021/01/13 06:55:43;;;;;;;25.25;9.63;;;0.80;99.90;;;;;;5023278;28;20040;-76
2021/01/13 06:58:14;;;;;;;26.48;10.40;;;0.80;99.90;;;;;;5028017;28;20550;-75
2021/01/13 07:00:42;;;;;;;26.88;10.07;;;0.90;99.90;;;;;;5028459;28;20045;-75
2021/01/13 07:03:28;;;;;;;23.98;10.10;;;0.80;99.90;;;;;;5052312;28;20045;-76
2021/01/13 07:05:55;;;;;;;24.08;9.35;;;0.70;99.90;;;;;;5032265;28;20027;-76
2021/01/13 07:08:21;;;;;;;27.17;9.88;;;0.70;99.90;;;;;;5013977;28;20065;-76
2021/01/13 07:10:47;;;;;;;23.90;10.07;;;0.70;99.90;;;;;;5029653;28;20493;-76
2021/01/13 07:13:17;;;;;;;25.08;9.30;;;0.50;99.90;;;;;;5005190;28;20045;-76
2021/01/13 07:15:44;;;;;;;28.35;9.90;;;0.50;99.90;;;;;;5022951;28;20053;-76
2021/01/13 07:18:12;;;;;;;21.75;9.23;;;0.50;99.90;;;;;;5021136;28;20084;-76
2021/01/13 07:20:41;;;;;;;19.95;9.50;;;0.50;99.90;;;;;;5019451;28;20407;-75
2021/01/13 07:23:10;;;;;;;17.08;8.95;;;0.60;99.90;;;;;;5035807;28;20060;-76
2021/01/13 07:25:44;;;;;;;19.88;9.88;;;0.60;99.90;;;;;;4997408;28;20037;-76
2021/01/13 07:28:12;;;;;;;17.63;9.00;;;0.70;99.90;;;;;;5020725;28;20087;-76
2021/01/13 07:30:40;;;;;;;21.42;10.07;;;0.70;99.90;;;;;;5024496;28;20038;-76
2021/01/13 07:33:10;;;;;;;21.70;8.68;;;0.70;99.90;;;;;;5022391;28;20360;-76
2021/01/13 07:35:44;;;;;;;21.08;9.35;;;0.70;99.90;;;;;;5037849;28;20036;-75
2021/01/13 07:38:13;;;;;;;28.38;10.00;;;0.70;99.90;;;;;;5020770;28;20041;-76
2021/01/13 07:40:48;;;;;;;18.45;9.27;;;0.60;99.90;;;;;;5019039;28;20131;-75
2021/01/13 07:43:29;;;;;;;22.13;10.57;;;0.60;99.90;;;;;;5012987;28;20095;-76
2021/01/13 07:46:03;;;;;;;;;;;0.70;99.90;;;;;;5021897;28;20407;-76
2021/01/13 07:48:34;;;;;;;21.10;8.73;;;0.60;99.90;;;;;;5019798;28;19917;-76
2021/01/13 07:51:09;;;;;;;22.10;9.13;;;0.70;99.90;;;;;;5032440;28;20045;-76
2021/01/13 07:53:37;;;;;;;28.73;9.88;;;0.70;99.90;;;;;;5016992;28;20487;-75
2021/01/13 07:56:04;;;;;;;23.85;10.98;;;-0.10;99.90;;;;;;5016576;28;20567;-76
2021/01/13 07:58:35;;;;;;;21.20;9.50;;;0.80;99.90;;;;;;5022803;28;20309;-76
2021/01/13 08:01:19;;;;;;;24.23;10.48;;;0.80;99.90;;;;;;5006630;28;20107;-76
2021/01/13 08:04:00;;;;;;;23.60;10.73;;;0.90;99.90;;;;;;5037214;28;20041;-76
2021/01/13 08:06:46;;;;;;;20.83;9.90;;;0.80;99.90;;;;;;5019202;28;20063;-76
2021/01/13 08:09:20;;;;;;;30.48;11.15;;;0.80;99.90;;;;;;5017715;28;20029;-77
2021/01/13 08:12:09;;;;;;;22.50;10.93;;;0.80;99.90;;;;;;5010760;28;20132;-75
2021/01/13 08:14:40;;;;;;;24.60;10.32;;;0.80;99.90;;;;;;5019434;28;20383;-75
2021/01/13 08:17:50;;;;;;;25.67;10.38;;;0.90;99.90;;;;;;5023794;28;20038;-74
2021/01/13 08:20:39;;;;;;;22.67;9.73;;;1.00;99.90;;;;;;5018583;28;20118;-77
2021/01/13 08:23:11;;;;;;;22.40;10.73;;;1.00;99.90;;;;;;5020275;28;20112;-76
2021/01/13 08:25:42;;;;;;;23.25;10.95;;;1.10;99.90;;;;;;5024503;28;20033;-76
2021/01/13 08:28:11;;;;;;;18.67;10.65;;;1.20;99.90;;;;;;5022986;28;20198;-75
2021/01/13 08:30:41;;;;;;;23.30;10.88;;;1.20;99.90;;;;;;5023593;28;20209;-76
2021/01/13 08:33:17;;;;;;;21.92;11.02;;;1.30;99.90;;;;;;5021107;28;20522;-76
2021/01/13 08:35:48;;;;;;;28.98;11.43;;;1.40;99.90;;;;;;5014887;28;20038;-75
2021/01/13 08:38:15;;;;;;;23.60;10.90;;;1.40;99.90;;;;;;5016048;28;20148;-76
2021/01/13 08:40:41;;;;;;;25.85;10.40;;;1.60;99.90;;;;;;5022514;28;20033;-76
2021/01/13 08:43:15;;;;;;;21.65;10.68;;;1.50;99.90;;;;;;5013322;28;20042;-75
2021/01/13 08:45:43;;;;;;;30.13;12.02;;;1.50;99.90;;;;;;5014872;28;20026;-76
2021/01/13 08:48:09;;;;;;;26.63;12.27;;;1.50;99.90;;;;;;5022311;28;20540;-76
2021/01/13 08:50:36;;;;;;;20.10;10.63;;;1.50;99.90;;;;;;5023339;28;20055;-76
2021/01/13 08:53:03;;;;;;;24.05;12.20;;;1.50;99.90;;;;;;5013624;28;20056;-76
2021/01/13 08:55:31;;;;;;;20.98;11.73;;;1.50;99.90;;;;;;5016356;28;22348;-76
2021/01/13 08:58:06;;;;;;;25.10;12.75;;;1.50;99.90;;;;;;5019746;28;20056;-75
2021/01/13 09:00:33;;;;;;;32.17;12.02;;;1.60;99.90;;;;;;5027034;28;20024;-75
2021/01/13 09:03:05;;;;;;;24.05;12.48;;;1.50;99.90;;;;;;5019056;28;20052;-76
2021/01/13 09:05:36;;;;;;;20.42;11.90;;;1.60;99.90;;;;;;5015350;28;20103;-76
2021/01/13 09:08:08;;;;;;;17.92;10.40;;;1.70;99.90;;;;;;4996549;28;20029;-76
2021/01/13 09:10:50;;;;;;;27.30;11.73;;;1.80;99.90;;;;;;5016060;28;20391;-75
2021/01/13 09:13:31;;;;;;;26.52;11.43;;;1.90;99.90;;;;;;5044566;28;20152;-76
2021/01/13 09:16:17;;;;;;;25.42;12.75;;;2.00;99.90;;;;;;5018704;28;20046;-76
2021/01/13 09:18:45;;;;;;;26.65;10.80;;;2.10;99.90;;;;;;5019770;28;20095;-75
2021/01/13 09:21:13;;;;;;;24.85;10.80;;;2.10;99.90;;;;;;5019999;28;20045;-76
2021/01/13 09:23:52;;;;;;;24.33;10.68;;;2.10;99.90;;;;;;5026879;28;20028;-76
2021/01/13 09:26:18;;;;;;;20.40;9.07;;;2.20;99.90;;;;;;5023496;28;20414;-76
2021/01/13 09:28:45;;;;;;;15.90;7.43;;;1.80;99.90;;;;;;5024684;28;20533;-76
2021/01/13 09:31:13;;;;;;;20.80;7.32;;;2.30;99.90;;;;;;5021925;28;20124;-75
2021/01/13 09:33:39;;;;;;;14.23;6.70;;;2.50;99.90;;;;;;5028494;28;20041;-75
2021/01/13 09:36:07;;;;;;;20.20;6.43;;;2.50;99.90;;;;;;4992065;28;20487;-76
2021/01/13 09:38:38;;;;;;;12.07;5.93;;;2.60;99.90;;;;;;5019130;28;20091;-76
2021/01/13 09:41:06;;;;;;;20.58;5.88;;;2.60;99.90;;;;;;5030951;28;20029;-76
2021/01/13 09:43:41;;;;;;;13.60;5.60;;;2.60;99.90;;;;;;5022934;28;20067;-74
2021/01/13 09:46:27;;;;;;;14.88;5.55;;;2.60;99.90;;;;;;5020881;28;20037;-76
2021/01/13 09:49:11;;;;;;;15.73;5.80;;;2.60;99.90;;;;;;5026605;28;20045;-75
2021/01/13 09:51:40;;;;;;;14.88;4.97;;;2.80;99.90;;;;;;5020515;28;20032;-75
2021/01/13 09:54:08;;;;;;;10.35;4.22;;;2.90;99.90;;;;;;5025373;28;20029;-74
2021/01/13 09:56:37;;;;;;;11.73;5.22;;;2.90;99.90;;;;;;5016477;28;20046;-75
2021/01/13 09:59:05;;;;;;;13.75;4.75;;;2.80;99.90;;;;;;5029512;28;20045;-75
2021/01/13 10:01:38;;;;;;;10.57;4.68;;;3.00;99.90;;;;;;5026002;28;20052;-76
2021/01/13 10:04:12;;;;;;;13.40;5.07;;;2.90;99.90;;;;;;5032639;28;20045;-76
2021/01/13 10:06:42;;;;;;;10.88;4.55;;;2.90;99.90;;;;;;5016020;28;20435;-75
2021/01/13 10:09:11;;;;;;;15.10;5.10;;;3.00;99.90;;;;;;5018620;28;20046;-76
2021/01/13 10:11:38;;;;;;;13.55;5.13;;;2.90;99.90;;;;;;5025728;28;20045;-76
2021/01/13 10:14:06;;;;;;;12.23;4.97;;;3.00;99.90;;;;;;5025201;28;21013;-76
2021/01/13 10:16:32;;;;;;;13.43;5.13;;;3.00;99.90;;;;;;5021470;28;20132;-76
2021/01/13 10:19:03;;;;;;;10.45;4.93;;;3.10;99.90;;;;;;5025206;28;20630;-76
2021/01/13 10:21:39;;;;;;;12.15;5.18;;;3.10;99.90;;;;;;5029450;28;20044;-76
2021/01/13 10:24:10;;;;;;;11.10;4.35;;;3.20;99.90;;;;;;5039177;28;20116;-76
2021/01/13 10:26:43;;;;;;;11.40;4.00;;;3.20;99.90;;;;;;5027647;28;20288;-76
2021/01/13 10:29:11;;;;;;;11.50;4.40;;;3.20;99.90;;;;;;5028593;28;20037;-76
2021/01/13 10:31:38;;;;;;;11.77;4.97;;;3.10;99.90;;;;;;5024109;28;20506;-77
2021/01/13 10:34:04;;;;;;;12.02;5.03;;;3.20;99.90;;;;;;5026677;28;20093;-75
2021/01/13 10:36:40;;;;;;;13.45;4.88;;;3.20;99.90;;;;;;5023586;28;20045;-77
2021/01/13 10:39:07;;;;;;;11.52;4.70;;;3.20;99.90;;;;;;5017086;28;20030;-77
2021/01/13 10:41:43;;;;;;;14.13;5.07;;;3.20;99.90;;;;;;5041042;28;20157;-76
2021/01/13 10:44:12;;;;;;;10.32;4.60;;;3.30;99.90;;;;;;5021126;28;20138;-76
2021/01/13 10:47:09;;;;;;;12.55;5.22;;;3.30;99.90;;;;;;5016943;28;20044;-77
2021/01/13 10:49:43;;;;;;;7.63;4.70;;;3.40;99.90;;;;;;5018851;28;20526;-74
2021/01/13 10:52:16;;;;;;;17.35;5.32;;;3.40;99.90;;;;;;5016846;28;20447;-75
2021/01/13 10:54:44;;;;;;;9.48;4.70;;;3.50;99.90;;;;;;5020964;28;20038;-75
2021/01/13 10:57:12;;;;;;;15.18;4.80;;;3.50;99.90;;;;;;5022100;28;20042;-76
2021/01/13 10:59:40;;;;;;;6.82;3.85;;;3.60;99.90;;;;;;5021148;28;20033;-74
2021/01/13 11:02:07;;;;;;;15.38;5.45;;;3.60;99.90;;;;;;5020719;28;20555;-75
2021/01/13 11:04:37;;;;;;;10.23;3.88;;;3.70;99.90;;;;;;5017763;28;20511;-76
2021/01/13 11:07:11;;;;;;;9.00;3.67;;;3.70;99.90;;;;;;5026093;28;20040;-75
2021/01/13 11:09:41;;;;;;;9.38;3.95;;;3.90;99.90;;;;;;5021112;28;20037;-74
2021/01/13 11:12:08;;;;;;;11.57;3.88;;;3.80;99.90;;;;;;5014983;28;20025;-76
2021/01/13 11:14:34;;;;;;;12.57;4.35;;;3.90;99.90;;;;;;5017111;28;20045;-76
2021/01/13 11:17:04;;;;;;;9.52;3.55;;;3.90;99.90;;;;;;5021851;28;20033;-75
2021/01/13 11:19:30;;;;;;;11.60;4.20;;;;;;;;;;5016283;28;20034;-76
2021/01/13 11:21:57;;;;;;;10.35;4.32;;;3.90;99.90;;;;;;5015305;28;20539;-75
2021/01/13 11:24:35;;;;;;;9.43;3.60;;;4.00;99.90;;;;;;5019705;28;20045;-75
2021/01/13 11:27:06;;;;;;;10.10;3.50;;;4.00;99.90;;;;;;5010931;28;20042;-75
2021/01/13 11:29:35;;;;;;;12.50;4.22;;;5.70;99.90;;;;;;5024714;28;20057;-76
2021/01/13 11:32:02;;;;;;;11.45;4.00;;;4.20;99.90;;;;;;5021524;28;20053;-75
2021/01/13 11:34:31;;;;;;;9.85;3.50;;;4.20;99.90;;;;;;5015658;28;20041;-76
2021/01/13 11:37:17;;;;;;;7.63;3.28;;;4.20;99.90;;;;;;5021223;28;20403;-75
2021/01/13 11:40:04;;;;;;;6.15;2.78;;;4.20;99.90;;;;;;5013683;28;20088;-76
2021/01/13 11:42:45;;;;;;;11.18;3.53;;;4.30;99.70;;;;;;5005729;28;20049;-76
2021/01/13 11:45:24;;;;;;;9.07;3.75;;;4.20;99.50;;;;;;5041395;28;20037;-75
2021/01/13 11:47:54;;;;;;;10.02;3.30;;;4.10;99.90;;;;;;5022606;28;20037;-76
2021/01/13 11:50:24;;;;;;;9.13;3.83;;;4.20;99.90;;;;;;5021264;28;20064;-75
2021/01/13 11:53:05;;;;;;;8.95;3.53;;;4.10;99.90;;;;;;5024592;28;20037;-75
2021/01/13 11:55:31;;;;;;;;;;;4.10;99.90;;;;;;5025872;28;20040;-75
2021/01/13 11:57:57;;;;;;;8.85;3.08;;;;;;;;;;5018266;28;19912;-76
2021/01/13 12:00:30;;;;;;;11.07;3.63;;;;;;;;;;5025670;28;20041;-75
2021/01/13 12:03:00;;;;;;;10.50;3.72;;;4.30;99.90;;;;;;5025188;28;20069;-75
2021/01/13 12:05:30;;;;;;;15.00;3.30;;;4.20;99.90;;;;;;5030572;28;20041;-76
2021/01/13 12:08:07;;;;;;;11.52;3.83;;;5.50;99.90;;;;;;5021299;28;20052;-75
2021/01/13 12:10:38;;;;;;;14.07;3.67;;;4.30;99.90;;;;;;5027353;28;20033;-75
2021/01/13 12:13:20;;;;;;;9.45;3.05;;;4.30;99.90;;;;;;5015813;28;20088;-76
2021/01/13 12:16:03;;;;;;;10.48;2.47;;;4.30;99.90;;;;;;5027289;28;20115;-76
2021/01/13 12:18:31;;;;;;;11.02;2.80;;;4.50;99.40;;;;;;5033523;28;20037;-75
2021/01/13 12:21:21;;;;;;;9.38;2.50;;;4.60;98.80;;;;;;5021957;28;20299;-78
2021/01/13 12:23:53;;;;;;;11.37;3.00;;;4.50;99.10;;;;;;5041117;28;20048;-78
2021/01/13 12:26:27;;;;;;;;;;;4.70;98.30;;;;;;5028082;28;20028;-77
2021/01/13 12:28:55;;;;;;;11.90;3.10;;;4.70;98.60;;;;;;5025643;28;20269;-75
2021/01/13 12:31:22;;;;;;;11.57;3.10;;;4.80;98.30;;;;;;5014252;28;20446;-76
2021/01/13 12:33:54;;;;;;;10.07;3.20;;;4.80;98.50;;;;;;5023730;28;20414;-76
2021/01/13 12:36:23;;;;;;;6.57;2.75;;;4.90;98.20;;;;;;5021985;28;20060;-76
2021/01/13 12:38:49;;;;;;;7.68;2.53;;;;;;;;;;5023492;28;20033;-76
2021/01/13 12:41:29;;;;;;;6.10;2.08;;;;;;;;;;5023323;28;20041;-75
2021/01/13 12:44:00;;;;;;;8.25;2.83;;;5.20;97.30;;;;;;5023494;28;20117;-76
2021/01/13 12:46:28;;;;;;;7.10;2.53;;;5.60;99.90;;;;;;5020407;28;20061;-76
2021/01/13 12:48:54;;;;;;;17.48;6.63;;;5.30;96.80;;;;;;5021982;28;20491;-74
2021/01/13 12:51:21;;;;;;;13.20;2.83;;;5.30;96.90;;;;;;5019860;28;20040;-75
2021/01/13 12:53:46;;;;;;;11.25;3.38;;;5.20;96.90;;;;;;5017923;28;20042;-75
2021/01/13 12:56:29;;;;;;;10.85;2.60;;;5.20;97.30;;;;;;5019689;28;20037;-76
2021/01/13 12:58:57;;;;;;;8.80;2.83;;;;;;;;;;5021097;28;20052;-76
2021/01/13 13:01:23;;;;;;;9.55;2.95;;;6.70;97.30;;;;;;5024890;28;20037;-76
2021/01/13 13:03:50;;;;;;;10.23;2.67;;;5.20;97.10;;;;;;5018716;28;20041;-75
2021/01/13 13:06:31;;;;;;;9.77;2.90;;;5.20;97.50;;;;;;5020541;28;20061;-74
2021/01/13 13:08:58;;;;;;;9.00;2.80;;;5.20;97.40;;;;;;5024418;28;20030;-76
2021/01/13 13:11:24;;;;;;;8.20;3.00;;;5.00;98.10;;;;;;5023373;28;20034;-74
2021/01/13 13:13:51;;;;;;;11.40;3.00;;;5.00;98.20;;;;;;5023365;28;20079;-74
2021/01/13 13:16:19;;;;;;;6.90;2.88;;;4.90;98.30;;;;;;5022507;28;20079;-75
2021/01/13 13:18:45;;;;;;;13.98;3.33;;;4.90;98.50;;;;;;5025288;28;20116;-74
2021/01/13 13:21:12;;;;;;;9.57;3.38;;;4.90;98.60;;;;;;5022734;28;20044;-75